Millertown, Canada
Current Conditions -  °F | °C
As of 12:00 AM on Sunday 25 Jan 2015 (Local Time) from CYDF Reporting Station
Light Snow Light Snow  
Wind Chill: 17°   Ceiling: 2200
Heat Index: 25°   Visibility: 12mi
Dew Point: 23°   Wind: 7mph
Humidity: 93%   Direction: 50°NE
Pressure: 29.6"   Gusts: NA
Location:  48.82°N, 56.53°W
Report Text: CYDF 250300Z 05006KT 12SM -SN OVC022 M04/M05 A2960 RMK SC8 SLP024
Loading
Personal Weather Stations






























Interactive Weather Map New forecast layout! Learn more

10-Day Weather Forecast

Advertisements
Track Severe Weather on mobile